sensor_id;sensor_type;location;lat;lon;timestamp;P1;durP1;ratioP1;P2;durP2;ratioP2
67816;SDS011;54614;47.576;7.524;2022-07-29T00:00:45;3.28;;;3.08;;
67816;SDS011;54614;47.576;7.524;2022-07-29T00:03:11;3.30;;;3.10;;
67816;SDS011;54614;47.576;7.524;2022-07-29T00:05:39;3.30;;;3.10;;
67816;SDS011;54614;47.576;7.524;2022-07-29T00:08:06;3.03;;;2.83;;
67816;SDS011;54614;47.576;7.524;2022-07-29T00:10:35;3.20;;;3.00;;
67816;SDS011;54614;47.576;7.524;2022-07-29T00:13:00;3.30;;;3.10;;
67816;SDS011;54614;47.576;7.524;2022-07-29T00:15:27;3.00;;;2.80;;
67816;SDS011;54614;47.576;7.524;2022-07-29T00:17:53;3.30;;;3.00;;
67816;SDS011;54614;47.576;7.524;2022-07-29T00:20:19;2.72;;;2.60;;
67816;SDS011;54614;47.576;7.524;2022-07-29T00:22:45;2.90;;;2.70;;
67816;SDS011;54614;47.576;7.524;2022-07-29T00:25:11;3.15;;;2.95;;
67816;SDS011;54614;47.576;7.524;2022-07-29T00:27:38;3.00;;;2.80;;
67816;SDS011;54614;47.576;7.524;2022-07-29T00:30:04;2.88;;;2.67;;
67816;SDS011;54614;47.576;7.524;2022-07-29T00:32:31;2.88;;;2.67;;
67816;SDS011;54614;47.576;7.524;2022-07-29T00:34:58;2.40;;;2.30;;
67816;SDS011;54614;47.576;7.524;2022-07-29T00:37:43;3.15;;;2.75;;
67816;SDS011;54614;47.576;7.524;2022-07-29T00:40:09;3.03;;;2.83;;
67816;SDS011;54614;47.576;7.524;2022-07-29T00:42:49;2.95;;;2.75;;
67816;SDS011;54614;47.576;7.524;2022-07-29T00:45:17;2.90;;;2.70;;
67816;SDS011;54614;47.576;7.524;2022-07-29T00:47:44;2.95;;;2.75;;
67816;SDS011;54614;47.576;7.524;2022-07-29T00:50:11;2.78;;;2.58;;
67816;SDS011;54614;47.576;7.524;2022-07-29T00:52:39;2.90;;;2.70;;
67816;SDS011;54614;47.576;7.524;2022-07-29T00:55:07;2.88;;;2.67;;
67816;SDS011;54614;47.576;7.524;2022-07-29T00:57:39;2.83;;;2.63;;
67816;SDS011;54614;47.576;7.524;2022-07-29T01:00:08;2.95;;;2.75;;
67816;SDS011;54614;47.576;7.524;2022-07-29T01:02:37;3.10;;;2.88;;
67816;SDS011;54614;47.576;7.524;2022-07-29T01:05:04;2.78;;;2.47;;
67816;SDS011;54614;47.576;7.524;2022-07-29T01:07:31;2.80;;;2.60;;
67816;SDS011;54614;47.576;7.524;2022-07-29T01:10:00;2.90;;;2.70;;
67816;SDS011;54614;47.576;7.524;2022-07-29T01:12:32;2.55;;;2.42;;
67816;SDS011;54614;47.576;7.524;2022-07-29T01:15:02;2.88;;;2.67;;
67816;SDS011;54614;47.576;7.524;2022-07-29T01:17:42;2.72;;;2.53;;
67816;SDS011;54614;47.576;7.524;2022-07-29T01:20:26;2.75;;;2.55;;
67816;SDS011;54614;47.576;7.524;2022-07-29T01:29:24;2.75;;;2.55;;
67816;SDS011;54614;47.576;7.524;2022-07-29T01:32:02;2.60;;;2.50;;
67816;SDS011;54614;47.576;7.524;2022-07-29T01:37:26;2.78;;;2.60;;
67816;SDS011;54614;47.576;7.524;2022-07-29T01:40:19;2.85;;;2.65;;
67816;SDS011;54614;47.576;7.524;2022-07-29T01:42:58;2.80;;;2.60;;
67816;SDS011;54614;47.576;7.524;2022-07-29T01:45:37;2.75;;;2.55;;
67816;SDS011;54614;47.576;7.524;2022-07-29T01:48:11;2.90;;;2.70;;
67816;SDS011;54614;47.576;7.524;2022-07-29T01:51:02;2.40;;;2.30;;
67816;SDS011;54614;47.576;7.524;2022-07-29T01:56:42;2.50;;;2.40;;
67816;SDS011;54614;47.576;7.524;2022-07-29T01:59:10;2.70;;;2.50;;
67816;SDS011;54614;47.576;7.524;2022-07-29T02:01:37;2.90;;;2.70;;
67816;SDS011;54614;47.576;7.524;2022-07-29T02:04:06;2.85;;;2.65;;
67816;SDS011;54614;47.576;7.524;2022-07-29T02:06:37;3.17;;;2.83;;
67816;SDS011;54614;47.576;7.524;2022-07-29T02:09:07;2.80;;;2.60;;
67816;SDS011;54614;47.576;7.524;2022-07-29T02:11:38;2.80;;;2.60;;
67816;SDS011;54614;47.576;7.524;2022-07-29T02:14:06;2.83;;;2.63;;
67816;SDS011;54614;47.576;7.524;2022-07-29T02:16:35;2.80;;;2.60;;
67816;SDS011;54614;47.576;7.524;2022-07-29T02:19:02;2.97;;;2.65;;
67816;SDS011;54614;47.576;7.524;2022-07-29T02:21:31;2.85;;;2.60;;
67816;SDS011;54614;47.576;7.524;2022-07-29T02:24:01;2.80;;;2.60;;
67816;SDS011;54614;47.576;7.524;2022-07-29T02:26:29;2.63;;;2.50;;
67816;SDS011;54614;47.576;7.524;2022-07-29T02:28:58;2.70;;;2.50;;
67816;SDS011;54614;47.576;7.524;2022-07-29T02:31:28;3.03;;;2.80;;
67816;SDS011;54614;47.576;7.524;2022-07-29T02:34:00;2.65;;;2.45;;
67816;SDS011;54614;47.576;7.524;2022-07-29T02:36:30;2.70;;;2.50;;
67816;SDS011;54614;47.576;7.524;2022-07-29T02:38:57;2.78;;;2.58;;
67816;SDS011;54614;47.576;7.524;2022-07-29T02:41:41;2.80;;;2.60;;
67816;SDS011;54614;47.576;7.524;2022-07-29T02:44:17;2.75;;;2.55;;
67816;SDS011;54614;47.576;7.524;2022-07-29T02:46:48;2.80;;;2.60;;
67816;SDS011;54614;47.576;7.524;2022-07-29T02:54:58;2.75;;;2.55;;
67816;SDS011;54614;47.576;7.524;2022-07-29T03:00:38;2.53;;;2.42;;
67816;SDS011;54614;47.576;7.524;2022-07-29T03:03:07;2.55;;;2.35;;
67816;SDS011;54614;47.576;7.524;2022-07-29T03:05:39;2.70;;;2.50;;
67816;SDS011;54614;47.576;7.524;2022-07-29T03:08:06;2.53;;;2.42;;
67816;SDS011;54614;47.576;7.524;2022-07-29T03:10:36;2.65;;;2.50;;
67816;SDS011;54614;47.576;7.524;2022-07-29T03:13:07;2.60;;;2.40;;
67816;SDS011;54614;47.576;7.524;2022-07-29T03:15:35;2.75;;;2.55;;
67816;SDS011;54614;47.576;7.524;2022-07-29T03:18:02;2.70;;;2.60;;
67816;SDS011;54614;47.576;7.524;2022-07-29T03:20:30;2.85;;;2.65;;
67816;SDS011;54614;47.576;7.524;2022-07-29T03:22:56;2.78;;;2.58;;
67816;SDS011;54614;47.576;7.524;2022-07-29T03:25:22;2.58;;;2.40;;
67816;SDS011;54614;47.576;7.524;2022-07-29T03:27:48;2.47;;;2.38;;
67816;SDS011;54614;47.576;7.524;2022-07-29T03:30:14;2.78;;;2.58;;
67816;SDS011;54614;47.576;7.524;2022-07-29T03:32:41;2.70;;;2.50;;
67816;SDS011;54614;47.576;7.524;2022-07-29T03:35:08;2.70;;;2.50;;
67816;SDS011;54614;47.576;7.524;2022-07-29T03:37:34;2.75;;;2.55;;
67816;SDS011;54614;47.576;7.524;2022-07-29T03:40:02;2.60;;;2.40;;
67816;SDS011;54614;47.576;7.524;2022-07-29T03:42:34;2.45;;;2.35;;
67816;SDS011;54614;47.576;7.524;2022-07-29T03:45:09;2.67;;;2.47;;
67816;SDS011;54614;47.576;7.524;2022-07-29T03:47:42;2.47;;;2.30;;
67816;SDS011;54614;47.576;7.524;2022-07-29T03:50:15;2.30;;;2.20;;
67816;SDS011;54614;47.576;7.524;2022-07-29T03:52:44;2.30;;;2.20;;
67816;SDS011;54614;47.576;7.524;2022-07-29T03:55:12;2.42;;;2.33;;
67816;SDS011;54614;47.576;7.524;2022-07-29T03:57:39;2.63;;;2.45;;
67816;SDS011;54614;47.576;7.524;2022-07-29T04:00:07;2.83;;;2.63;;
67816;SDS011;54614;47.576;7.524;2022-07-29T04:02:35;2.45;;;2.33;;
67816;SDS011;54614;47.576;7.524;2022-07-29T04:05:03;2.45;;;2.25;;
67816;SDS011;54614;47.576;7.524;2022-07-29T04:07:29;2.47;;;2.30;;
67816;SDS011;54614;47.576;7.524;2022-07-29T04:09:55;3.47;;;2.40;;
67816;SDS011;54614;47.576;7.524;2022-07-29T04:12:21;2.30;;;2.20;;
67816;SDS011;54614;47.576;7.524;2022-07-29T04:14:47;2.60;;;2.40;;
67816;SDS011;54614;47.576;7.524;2022-07-29T04:17:13;2.67;;;2.47;;
67816;SDS011;54614;47.576;7.524;2022-07-29T04:19:40;2.60;;;2.45;;
67816;SDS011;54614;47.576;7.524;2022-07-29T04:22:06;2.45;;;2.35;;
67816;SDS011;54614;47.576;7.524;2022-07-29T04:24:32;2.70;;;2.50;;
67816;SDS011;54614;47.576;7.524;2022-07-29T04:26:58;2.55;;;2.35;;
67816;SDS011;54614;47.576;7.524;2022-07-29T04:29:23;2.33;;;2.22;;
67816;SDS011;54614;47.576;7.524;2022-07-29T04:31:49;2.25;;;2.15;;
67816;SDS011;54614;47.576;7.524;2022-07-29T04:34:15;2.45;;;2.25;;
67816;SDS011;54614;47.576;7.524;2022-07-29T04:36:41;2.40;;;2.30;;
67816;SDS011;54614;47.576;7.524;2022-07-29T04:39:07;2.70;;;2.50;;
67816;SDS011;54614;47.576;7.524;2022-07-29T04:41:33;5.57;;;4.20;;
67816;SDS011;54614;47.576;7.524;2022-07-29T04:43:59;4.70;;;3.92;;
67816;SDS011;54614;47.576;7.524;2022-07-29T04:46:30;5.15;;;4.35;;
67816;SDS011;54614;47.576;7.524;2022-07-29T04:48:56;6.47;;;4.10;;
67816;SDS011;54614;47.576;7.524;2022-07-29T04:51:23;5.47;;;4.47;;
67816;SDS011;54614;47.576;7.524;2022-07-29T04:53:48;7.32;;;4.90;;
67816;SDS011;54614;47.576;7.524;2022-07-29T04:56:14;6.63;;;4.20;;
67816;SDS011;54614;47.576;7.524;2022-07-29T04:58:40;4.53;;;4.05;;
67816;SDS011;54614;47.576;7.524;2022-07-29T05:01:06;6.80;;;4.07;;
67816;SDS011;54614;47.576;7.524;2022-07-29T05:03:35;6.47;;;4.22;;
67816;SDS011;54614;47.576;7.524;2022-07-29T05:06:01;5.10;;;4.38;;
67816;SDS011;54614;47.576;7.524;2022-07-29T05:08:27;7.68;;;4.75;;
67816;SDS011;54614;47.576;7.524;2022-07-29T05:10:52;4.50;;;4.10;;
67816;SDS011;54614;47.576;7.524;2022-07-29T05:13:18;4.53;;;4.13;;
67816;SDS011;54614;47.576;7.524;2022-07-29T05:15:44;7.30;;;5.00;;
67816;SDS011;54614;47.576;7.524;2022-07-29T05:18:10;7.00;;;4.57;;
67816;SDS011;54614;47.576;7.524;2022-07-29T05:20:36;6.07;;;4.30;;
67816;SDS011;54614;47.576;7.524;2022-07-29T05:23:02;5.45;;;4.57;;
67816;SDS011;54614;47.576;7.524;2022-07-29T05:25:28;7.85;;;5.22;;
67816;SDS011;54614;47.576;7.524;2022-07-29T05:27:55;8.73;;;5.40;;
67816;SDS011;54614;47.576;7.524;2022-07-29T05:30:21;10.70;;;5.43;;
67816;SDS011;54614;47.576;7.524;2022-07-29T05:32:47;7.22;;;5.25;;
67816;SDS011;54614;47.576;7.524;2022-07-29T05:35:14;7.13;;;5.00;;
67816;SDS011;54614;47.576;7.524;2022-07-29T05:37:41;5.85;;;4.97;;
67816;SDS011;54614;47.576;7.524;2022-07-29T05:40:07;6.22;;;4.97;;
67816;SDS011;54614;47.576;7.524;2022-07-29T05:42:33;7.57;;;5.13;;
67816;SDS011;54614;47.576;7.524;2022-07-29T05:45:00;6.97;;;5.13;;
67816;SDS011;54614;47.576;7.524;2022-07-29T05:47:27;6.55;;;5.00;;
67816;SDS011;54614;47.576;7.524;2022-07-29T05:49:53;6.35;;;5.15;;
67816;SDS011;54614;47.576;7.524;2022-07-29T05:52:19;6.28;;;4.95;;
67816;SDS011;54614;47.576;7.524;2022-07-29T05:54:46;6.40;;;5.18;;
67816;SDS011;54614;47.576;7.524;2022-07-29T05:57:19;7.57;;;5.47;;
67816;SDS011;54614;47.576;7.524;2022-07-29T05:59:49;7.90;;;5.20;;
67816;SDS011;54614;47.576;7.524;2022-07-29T06:02:16;6.60;;;4.97;;
67816;SDS011;54614;47.576;7.524;2022-07-29T06:04:42;6.78;;;4.78;;
67816;SDS011;54614;47.576;7.524;2022-07-29T06:07:12;8.07;;;5.07;;
67816;SDS011;54614;47.576;7.524;2022-07-29T06:09:38;7.80;;;4.80;;
67816;SDS011;54614;47.576;7.524;2022-07-29T06:12:04;8.07;;;4.88;;
67816;SDS011;54614;47.576;7.524;2022-07-29T06:14:30;7.63;;;4.85;;
67816;SDS011;54614;47.576;7.524;2022-07-29T06:17:05;7.97;;;5.22;;
67816;SDS011;54614;47.576;7.524;2022-07-29T06:19:33;6.43;;;5.13;;
67816;SDS011;54614;47.576;7.524;2022-07-29T06:22:01;7.35;;;5.38;;
67816;SDS011;54614;47.576;7.524;2022-07-29T06:24:28;11.02;;;5.15;;
67816;SDS011;54614;47.576;7.524;2022-07-29T06:26:54;7.20;;;4.90;;
67816;SDS011;54614;47.576;7.524;2022-07-29T06:29:20;8.30;;;5.80;;
67816;SDS011;54614;47.576;7.524;2022-07-29T06:31:49;6.75;;;5.25;;
67816;SDS011;54614;47.576;7.524;2022-07-29T06:34:15;8.32;;;5.03;;
67816;SDS011;54614;47.576;7.524;2022-07-29T06:36:41;6.75;;;4.53;;
67816;SDS011;54614;47.576;7.524;2022-07-29T06:39:07;6.85;;;4.53;;
67816;SDS011;54614;47.576;7.524;2022-07-29T06:41:34;5.78;;;4.72;;
67816;SDS011;54614;47.576;7.524;2022-07-29T06:44:00;6.30;;;4.75;;
67816;SDS011;54614;47.576;7.524;2022-07-29T06:46:26;7.72;;;5.22;;
67816;SDS011;54614;47.576;7.524;2022-07-29T06:48:52;6.90;;;4.70;;
67816;SDS011;54614;47.576;7.524;2022-07-29T06:51:19;6.25;;;4.95;;
67816;SDS011;54614;47.576;7.524;2022-07-29T06:53:45;7.82;;;5.00;;
67816;SDS011;54614;47.576;7.524;2022-07-29T06:56:11;6.53;;;5.15;;
67816;SDS011;54614;47.576;7.524;2022-07-29T06:58:39;7.20;;;5.18;;
67816;SDS011;54614;47.576;7.524;2022-07-29T07:01:05;6.80;;;4.90;;
67816;SDS011;54614;47.576;7.524;2022-07-29T07:03:32;6.70;;;4.60;;
67816;SDS011;54614;47.576;7.524;2022-07-29T07:05:58;5.03;;;4.53;;
67816;SDS011;54614;47.576;7.524;2022-07-29T07:08:25;5.18;;;4.68;;
67816;SDS011;54614;47.576;7.524;2022-07-29T07:10:51;6.57;;;4.40;;
67816;SDS011;54614;47.576;7.524;2022-07-29T07:13:18;6.28;;;4.57;;
67816;SDS011;54614;47.576;7.524;2022-07-29T07:15:45;6.53;;;4.57;;
67816;SDS011;54614;47.576;7.524;2022-07-29T07:18:13;5.25;;;4.25;;
67816;SDS011;54614;47.576;7.524;2022-07-29T07:20:40;7.93;;;4.60;;
67816;SDS011;54614;47.576;7.524;2022-07-29T07:23:07;5.40;;;4.45;;
67816;SDS011;54614;47.576;7.524;2022-07-29T07:25:33;5.43;;;4.32;;
67816;SDS011;54614;47.576;7.524;2022-07-29T07:27:59;5.15;;;4.10;;
67816;SDS011;54614;47.576;7.524;2022-07-29T07:30:25;5.40;;;4.78;;
67816;SDS011;54614;47.576;7.524;2022-07-29T07:32:52;6.10;;;4.20;;
67816;SDS011;54614;47.576;7.524;2022-07-29T07:35:20;6.72;;;4.45;;
67816;SDS011;54614;47.576;7.524;2022-07-29T07:37:46;4.88;;;4.25;;
67816;SDS011;54614;47.576;7.524;2022-07-29T07:40:12;5.50;;;4.10;;
67816;SDS011;54614;47.576;7.524;2022-07-29T07:42:39;7.95;;;4.10;;
67816;SDS011;54614;47.576;7.524;2022-07-29T07:45:06;4.65;;;3.90;;
67816;SDS011;54614;47.576;7.524;2022-07-29T07:47:34;5.03;;;4.07;;
67816;SDS011;54614;47.576;7.524;2022-07-29T07:50:02;5.45;;;4.28;;
67816;SDS011;54614;47.576;7.524;2022-07-29T07:52:32;6.47;;;4.35;;
67816;SDS011;54614;47.576;7.524;2022-07-29T07:54:59;4.53;;;4.13;;
67816;SDS011;54614;47.576;7.524;2022-07-29T07:57:25;4.50;;;4.10;;
67816;SDS011;54614;47.576;7.524;2022-07-29T07:59:51;4.60;;;4.00;;
67816;SDS011;54614;47.576;7.524;2022-07-29T08:02:16;4.30;;;3.90;;
67816;SDS011;54614;47.576;7.524;2022-07-29T08:04:42;5.25;;;4.05;;
67816;SDS011;54614;47.576;7.524;2022-07-29T08:07:08;6.63;;;4.35;;
67816;SDS011;54614;47.576;7.524;2022-07-29T08:09:35;4.50;;;3.92;;
67816;SDS011;54614;47.576;7.524;2022-07-29T08:12:01;4.60;;;3.97;;
67816;SDS011;54614;47.576;7.524;2022-07-29T08:14:29;7.00;;;4.32;;
67816;SDS011;54614;47.576;7.524;2022-07-29T08:16:55;5.35;;;4.00;;
67816;SDS011;54614;47.576;7.524;2022-07-29T08:19:21;5.10;;;4.13;;
67816;SDS011;54614;47.576;7.524;2022-07-29T08:21:47;7.75;;;4.20;;
67816;SDS011;54614;47.576;7.524;2022-07-29T08:24:13;5.85;;;4.47;;
67816;SDS011;54614;47.576;7.524;2022-07-29T08:26:58;5.10;;;4.03;;
67816;SDS011;54614;47.576;7.524;2022-07-29T08:29:24;6.60;;;4.40;;
67816;SDS011;54614;47.576;7.524;2022-07-29T08:31:50;5.30;;;4.38;;
67816;SDS011;54614;47.576;7.524;2022-07-29T08:34:16;5.85;;;4.30;;
67816;SDS011;54614;47.576;7.524;2022-07-29T08:36:42;7.55;;;4.30;;
67816;SDS011;54614;47.576;7.524;2022-07-29T08:39:08;5.10;;;4.32;;
67816;SDS011;54614;47.576;7.524;2022-07-29T08:41:34;4.72;;;3.75;;
67816;SDS011;54614;47.576;7.524;2022-07-29T08:44:01;7.25;;;4.20;;
67816;SDS011;54614;47.576;7.524;2022-07-29T08:46:28;5.60;;;4.25;;
67816;SDS011;54614;47.576;7.524;2022-07-29T08:48:55;6.65;;;4.07;;
67816;SDS011;54614;47.576;7.524;2022-07-29T08:51:21;4.72;;;4.10;;
67816;SDS011;54614;47.576;7.524;2022-07-29T08:53:50;4.72;;;3.70;;
67816;SDS011;54614;47.576;7.524;2022-07-29T08:56:17;5.82;;;3.97;;
67816;SDS011;54614;47.576;7.524;2022-07-29T08:58:44;5.70;;;4.00;;
67816;SDS011;54614;47.576;7.524;2022-07-29T09:01:14;5.78;;;3.97;;
67816;SDS011;54614;47.576;7.524;2022-07-29T09:03:43;3.95;;;3.65;;
67816;SDS011;54614;47.576;7.524;2022-07-29T09:06:14;4.63;;;3.80;;
67816;SDS011;54614;47.576;7.524;2022-07-29T09:08:43;6.88;;;3.90;;
67816;SDS011;54614;47.576;7.524;2022-07-29T09:11:11;4.95;;;3.80;;
67816;SDS011;54614;47.576;7.524;2022-07-29T09:13:38;4.43;;;4.00;;
67816;SDS011;54614;47.576;7.524;2022-07-29T09:16:05;4.55;;;3.75;;
67816;SDS011;54614;47.576;7.524;2022-07-29T09:18:35;5.93;;;4.00;;
67816;SDS011;54614;47.576;7.524;2022-07-29T09:21:08;5.90;;;3.85;;
67816;SDS011;54614;47.576;7.524;2022-07-29T09:24:05;6.78;;;3.90;;
67816;SDS011;54614;47.576;7.524;2022-07-29T09:26:36;4.85;;;3.75;;
67816;SDS011;54614;47.576;7.524;2022-07-29T09:29:08;4.68;;;3.60;;
67816;SDS011;54614;47.576;7.524;2022-07-29T09:31:38;3.95;;;3.40;;
67816;SDS011;54614;47.576;7.524;2022-07-29T09:34:08;4.43;;;3.70;;
67816;SDS011;54614;47.576;7.524;2022-07-29T09:36:40;3.92;;;3.40;;
67816;SDS011;54614;47.576;7.524;2022-07-29T09:39:13;5.75;;;3.17;;
67816;SDS011;54614;47.576;7.524;2022-07-29T09:41:45;3.83;;;3.45;;
67816;SDS011;54614;47.576;7.524;2022-07-29T09:44:17;5.03;;;3.47;;
67816;SDS011;54614;47.576;7.524;2022-07-29T09:49:35;5.32;;;3.50;;
67816;SDS011;54614;47.576;7.524;2022-07-29T09:52:24;3.80;;;3.17;;
67816;SDS011;54614;47.576;7.524;2022-07-29T09:54:52;4.15;;;3.13;;
67816;SDS011;54614;47.576;7.524;2022-07-29T09:57:27;3.38;;;3.00;;
67816;SDS011;54614;47.576;7.524;2022-07-29T10:02:37;3.70;;;3.00;;
67816;SDS011;54614;47.576;7.524;2022-07-29T10:05:06;3.30;;;2.97;;
67816;SDS011;54614;47.576;7.524;2022-07-29T10:10:31;4.68;;;3.28;;
67816;SDS011;54614;47.576;7.524;2022-07-29T10:13:01;6.28;;;3.42;;
67816;SDS011;54614;47.576;7.524;2022-07-29T10:15:31;5.63;;;3.33;;
67816;SDS011;54614;47.576;7.524;2022-07-29T10:18:05;3.60;;;3.10;;
67816;SDS011;54614;47.576;7.524;2022-07-29T10:20:33;3.53;;;3.22;;
67816;SDS011;54614;47.576;7.524;2022-07-29T10:23:00;5.18;;;3.40;;
67816;SDS011;54614;47.576;7.524;2022-07-29T10:25:26;5.97;;;3.30;;
67816;SDS011;54614;47.576;7.524;2022-07-29T10:27:52;3.83;;;2.97;;
67816;SDS011;54614;47.576;7.524;2022-07-29T10:30:20;6.63;;;3.40;;
67816;SDS011;54614;47.576;7.524;2022-07-29T10:38:45;3.80;;;3.33;;
67816;SDS011;54614;47.576;7.524;2022-07-29T10:44:48;4.32;;;3.38;;
67816;SDS011;54614;47.576;7.524;2022-07-29T10:47:33;3.50;;;3.20;;
67816;SDS011;54614;47.576;7.524;2022-07-29T10:50:00;6.20;;;3.28;;
67816;SDS011;54614;47.576;7.524;2022-07-29T10:55:36;7.60;;;3.28;;
67816;SDS011;54614;47.576;7.524;2022-07-29T10:58:13;3.35;;;3.05;;
67816;SDS011;54614;47.576;7.524;2022-07-29T11:00:43;3.55;;;3.25;;
67816;SDS011;54614;47.576;7.524;2022-07-29T11:06:13;5.43;;;3.20;;
67816;SDS011;54614;47.576;7.524;2022-07-29T11:08:39;4.97;;;3.40;;
67816;SDS011;54614;47.576;7.524;2022-07-29T11:16:19;4.10;;;3.10;;
67816;SDS011;54614;47.576;7.524;2022-07-29T11:21:44;3.15;;;2.85;;
67816;SDS011;54614;47.576;7.524;2022-07-29T11:24:19;3.40;;;3.10;;
67816;SDS011;54614;47.576;7.524;2022-07-29T11:29:57;3.88;;;3.10;;
67816;SDS011;54614;47.576;7.524;2022-07-29T11:32:36;3.03;;;2.72;;
67816;SDS011;54614;47.576;7.524;2022-07-29T11:35:13;4.72;;;3.05;;
67816;SDS011;54614;47.576;7.524;2022-07-29T11:43:53;3.50;;;3.20;;
67816;SDS011;54614;47.576;7.524;2022-07-29T11:49:13;4.13;;;3.00;;
67816;SDS011;54614;47.576;7.524;2022-07-29T11:51:52;5.35;;;3.20;;
67816;SDS011;54614;47.576;7.524;2022-07-29T11:54:25;3.20;;;2.90;;
67816;SDS011;54614;47.576;7.524;2022-07-29T11:57:00;3.40;;;3.10;;
67816;SDS011;54614;47.576;7.524;2022-07-29T11:59:26;3.88;;;2.90;;
67816;SDS011;54614;47.576;7.524;2022-07-29T12:01:57;4.32;;;3.10;;
67816;SDS011;54614;47.576;7.524;2022-07-29T12:04:24;2.95;;;2.75;;
67816;SDS011;54614;47.576;7.524;2022-07-29T12:06:54;3.20;;;2.90;;
67816;SDS011;54614;47.576;7.524;2022-07-29T12:09:21;3.78;;;2.97;;
67816;SDS011;54614;47.576;7.524;2022-07-29T12:11:57;3.17;;;2.88;;
67816;SDS011;54614;47.576;7.524;2022-07-29T12:14:28;2.90;;;2.65;;
67816;SDS011;54614;47.576;7.524;2022-07-29T12:16:56;3.30;;;3.00;;
67816;SDS011;54614;47.576;7.524;2022-07-29T12:19:23;3.40;;;3.10;;
67816;SDS011;54614;47.576;7.524;2022-07-29T12:21:51;3.33;;;3.03;;
67816;SDS011;54614;47.576;7.524;2022-07-29T12:24:24;3.30;;;3.00;;
67816;SDS011;54614;47.576;7.524;2022-07-29T12:29:21;5.63;;;2.80;;
67816;SDS011;54614;47.576;7.524;2022-07-29T12:31:51;3.47;;;3.10;;
67816;SDS011;54614;47.576;7.524;2022-07-29T12:34:19;3.10;;;2.90;;
67816;SDS011;54614;47.576;7.524;2022-07-29T12:36:49;2.97;;;2.78;;
67816;SDS011;54614;47.576;7.524;2022-07-29T12:39:15;3.17;;;2.85;;
67816;SDS011;54614;47.576;7.524;2022-07-29T12:41:42;3.05;;;2.75;;
67816;SDS011;54614;47.576;7.524;2022-07-29T12:44:09;2.90;;;2.70;;
67816;SDS011;54614;47.576;7.524;2022-07-29T12:46:36;3.10;;;2.90;;
67816;SDS011;54614;47.576;7.524;2022-07-29T12:49:02;3.20;;;3.00;;
67816;SDS011;54614;47.576;7.524;2022-07-29T12:51:33;3.55;;;2.80;;
67816;SDS011;54614;47.576;7.524;2022-07-29T12:54:08;3.53;;;2.97;;
67816;SDS011;54614;47.576;7.524;2022-07-29T12:56:39;5.82;;;2.88;;
67816;SDS011;54614;47.576;7.524;2022-07-29T13:01:44;3.22;;;2.72;;
67816;SDS011;54614;47.576;7.524;2022-07-29T13:04:23;3.00;;;2.80;;
67816;SDS011;54614;47.576;7.524;2022-07-29T13:06:58;3.20;;;2.88;;
67816;SDS011;54614;47.576;7.524;2022-07-29T13:09:42;3.20;;;2.90;;
67816;SDS011;54614;47.576;7.524;2022-07-29T13:12:11;3.28;;;2.97;;
67816;SDS011;54614;47.576;7.524;2022-07-29T13:14:43;3.25;;;2.70;;
67816;SDS011;54614;47.576;7.524;2022-07-29T13:17:19;2.97;;;2.67;;
67816;SDS011;54614;47.576;7.524;2022-07-29T13:19:53;3.30;;;2.80;;
67816;SDS011;54614;47.576;7.524;2022-07-29T13:22:37;3.10;;;2.80;;
67816;SDS011;54614;47.576;7.524;2022-07-29T13:25:04;2.97;;;2.78;;
67816;SDS011;54614;47.576;7.524;2022-07-29T13:31:12;2.95;;;2.75;;
67816;SDS011;54614;47.576;7.524;2022-07-29T13:33:38;2.90;;;2.70;;
67816;SDS011;54614;47.576;7.524;2022-07-29T13:36:04;3.20;;;2.90;;
67816;SDS011;54614;47.576;7.524;2022-07-29T13:38:30;2.92;;;2.72;;
67816;SDS011;54614;47.576;7.524;2022-07-29T13:40:56;2.88;;;2.67;;
67816;SDS011;54614;47.576;7.524;2022-07-29T13:43:23;3.22;;;2.80;;
67816;SDS011;54614;47.576;7.524;2022-07-29T13:45:49;2.60;;;2.40;;
67816;SDS011;54614;47.576;7.524;2022-07-29T13:48:14;2.83;;;2.63;;
67816;SDS011;54614;47.576;7.524;2022-07-29T13:50:40;3.10;;;2.63;;
67816;SDS011;54614;47.576;7.524;2022-07-29T13:53:06;2.90;;;2.70;;
67816;SDS011;54614;47.576;7.524;2022-07-29T13:55:32;3.00;;;2.80;;
67816;SDS011;54614;47.576;7.524;2022-07-29T13:58:00;2.63;;;2.42;;
67816;SDS011;54614;47.576;7.524;2022-07-29T14:00:26;2.90;;;2.70;;
67816;SDS011;54614;47.576;7.524;2022-07-29T14:02:52;2.60;;;2.40;;
67816;SDS011;54614;47.576;7.524;2022-07-29T14:05:18;2.85;;;2.50;;
67816;SDS011;54614;47.576;7.524;2022-07-29T14:07:44;2.60;;;2.40;;
67816;SDS011;54614;47.576;7.524;2022-07-29T14:10:10;2.50;;;2.30;;
67816;SDS011;54614;47.576;7.524;2022-07-29T14:12:36;2.58;;;2.38;;
67816;SDS011;54614;47.576;7.524;2022-07-29T14:15:03;2.40;;;2.20;;
67816;SDS011;54614;47.576;7.524;2022-07-29T14:17:29;3.55;;;2.70;;
67816;SDS011;54614;47.576;7.524;2022-07-29T14:19:55;2.67;;;2.50;;
67816;SDS011;54614;47.576;7.524;2022-07-29T14:22:21;2.70;;;2.50;;
67816;SDS011;54614;47.576;7.524;2022-07-29T14:24:47;3.13;;;2.55;;
67816;SDS011;54614;47.576;7.524;2022-07-29T14:27:13;2.55;;;2.35;;
67816;SDS011;54614;47.576;7.524;2022-07-29T14:29:39;2.60;;;2.40;;
67816;SDS011;54614;47.576;7.524;2022-07-29T14:32:05;2.60;;;2.40;;
67816;SDS011;54614;47.576;7.524;2022-07-29T14:34:32;3.33;;;2.30;;
67816;SDS011;54614;47.576;7.524;2022-07-29T14:37:00;2.80;;;2.60;;
67816;SDS011;54614;47.576;7.524;2022-07-29T14:39:25;3.33;;;2.67;;
67816;SDS011;54614;47.576;7.524;2022-07-29T14:41:51;2.75;;;2.55;;
67816;SDS011;54614;47.576;7.524;2022-07-29T14:44:18;3.28;;;2.50;;
67816;SDS011;54614;47.576;7.524;2022-07-29T14:46:43;3.15;;;2.50;;
67816;SDS011;54614;47.576;7.524;2022-07-29T14:49:09;3.10;;;2.70;;
67816;SDS011;54614;47.576;7.524;2022-07-29T14:51:36;6.50;;;3.10;;
67816;SDS011;54614;47.576;7.524;2022-07-29T14:54:02;3.30;;;2.63;;
67816;SDS011;54614;47.576;7.524;2022-07-29T14:56:28;4.63;;;2.63;;
67816;SDS011;54614;47.576;7.524;2022-07-29T14:58:55;2.92;;;2.60;;
67816;SDS011;54614;47.576;7.524;2022-07-29T15:01:22;2.65;;;2.45;;
67816;SDS011;54614;47.576;7.524;2022-07-29T15:03:49;2.35;;;2.13;;
67816;SDS011;54614;47.576;7.524;2022-07-29T15:06:15;2.90;;;2.60;;
67816;SDS011;54614;47.576;7.524;2022-07-29T15:08:41;2.78;;;2.55;;
67816;SDS011;54614;47.576;7.524;2022-07-29T15:11:07;3.70;;;2.72;;
67816;SDS011;54614;47.576;7.524;2022-07-29T15:13:34;7.93;;;3.85;;
67816;SDS011;54614;47.576;7.524;2022-07-29T15:15:59;3.30;;;2.80;;
67816;SDS011;54614;47.576;7.524;2022-07-29T15:18:26;3.63;;;2.90;;
67816;SDS011;54614;47.576;7.524;2022-07-29T15:20:52;5.70;;;3.13;;
67816;SDS011;54614;47.576;7.524;2022-07-29T15:23:17;5.30;;;2.80;;
67816;SDS011;54614;47.576;7.524;2022-07-29T15:25:43;3.83;;;2.78;;
67816;SDS011;54614;47.576;7.524;2022-07-29T15:28:09;5.03;;;2.83;;
67816;SDS011;54614;47.576;7.524;2022-07-29T15:30:35;6.88;;;3.20;;
67816;SDS011;54614;47.576;7.524;2022-07-29T15:33:05;5.80;;;3.10;;
67816;SDS011;54614;47.576;7.524;2022-07-29T15:35:37;6.13;;;3.08;;
67816;SDS011;54614;47.576;7.524;2022-07-29T15:38:03;4.32;;;2.90;;
67816;SDS011;54614;47.576;7.524;2022-07-29T15:40:29;4.10;;;2.95;;
67816;SDS011;54614;47.576;7.524;2022-07-29T15:42:55;5.90;;;3.30;;
67816;SDS011;54614;47.576;7.524;2022-07-29T15:45:22;4.30;;;3.47;;
67816;SDS011;54614;47.576;7.524;2022-07-29T15:47:48;5.78;;;3.65;;
67816;SDS011;54614;47.576;7.524;2022-07-29T15:50:14;6.72;;;3.00;;
67816;SDS011;54614;47.576;7.524;2022-07-29T15:52:41;4.25;;;3.10;;
67816;SDS011;54614;47.576;7.524;2022-07-29T15:55:07;4.00;;;2.60;;
67816;SDS011;54614;47.576;7.524;2022-07-29T15:57:34;3.20;;;2.80;;
67816;SDS011;54614;47.576;7.524;2022-07-29T16:00:00;4.70;;;2.95;;
67816;SDS011;54614;47.576;7.524;2022-07-29T16:02:26;4.00;;;3.00;;
67816;SDS011;54614;47.576;7.524;2022-07-29T16:04:52;4.38;;;2.97;;
67816;SDS011;54614;47.576;7.524;2022-07-29T16:07:18;3.83;;;3.17;;
67816;SDS011;54614;47.576;7.524;2022-07-29T16:09:44;3.92;;;2.90;;